createdAt,value
2018-05-06T00:00:30.621Z,7.40
2018-05-06T00:02:57.016Z,7.50
2018-05-06T00:05:23.443Z,7.60
2018-05-06T00:07:50.082Z,7.60
2018-05-06T00:10:17.258Z,7.60
2018-05-06T00:12:43.652Z,7.60
2018-05-06T00:15:10.859Z,7.70
2018-05-06T00:17:37.317Z,7.90
2018-05-06T00:20:03.799Z,7.90
2018-05-06T00:22:30.321Z,7.80
2018-05-06T00:24:56.825Z,7.60
2018-05-06T00:27:24.037Z,7.60
2018-05-06T00:32:25.090Z,7.50
2018-05-06T00:34:51.452Z,7.60
2018-05-06T00:37:17.933Z,7.30
2018-05-06T00:39:44.479Z,6.90
2018-05-06T00:42:11.861Z,7.20
2018-05-06T00:44:38.663Z,7.20
2018-05-06T00:49:38.212Z,7.40
2018-05-06T00:52:04.805Z,7.30
2018-05-06T00:54:43.425Z,7.20
2018-05-06T00:57:10.395Z,7.50
2018-05-06T00:59:36.900Z,7.00
2018-05-06T01:02:03.597Z,6.90
2018-05-06T01:04:30.205Z,6.80
2018-05-06T01:06:58.180Z,6.80
2018-05-06T01:09:26.013Z,6.90
2018-05-06T01:11:52.725Z,6.80
2018-05-06T01:14:20.072Z,6.80
2018-05-06T01:16:46.692Z,6.70
2018-05-06T01:19:13.907Z,6.80
2018-05-06T01:21:41.586Z,6.90
2018-05-06T01:24:08.572Z,7.00
2018-05-06T01:26:35.501Z,7.00
2018-05-06T01:29:01.936Z,6.90
2018-05-06T01:31:29.610Z,6.90
2018-05-06T01:33:56.828Z,6.80
2018-05-06T01:36:23.252Z,6.80
2018-05-06T01:38:49.901Z,6.90
2018-05-06T01:41:16.352Z,7.00
2018-05-06T01:43:42.838Z,6.90
2018-05-06T01:46:09.482Z,6.80
2018-05-06T01:48:35.976Z,6.80
2018-05-06T01:51:02.478Z,6.60
2018-05-06T01:53:28.909Z,6.60
2018-05-06T01:55:55.595Z,6.40
2018-05-06T01:58:22.130Z,6.40
2018-05-06T02:03:17.327Z,6.40
2018-05-06T02:05:45.317Z,6.40
2018-05-06T02:08:12.522Z,6.40
2018-05-06T02:10:39.115Z,6.60
2018-05-06T02:13:06.005Z,6.50
2018-05-06T02:15:33.158Z,6.50
2018-05-06T02:17:59.653Z,6.70
2018-05-06T02:20:26.292Z,6.50
2018-05-06T02:22:53.114Z,6.60
2018-05-06T02:25:19.632Z,6.40
2018-05-06T02:27:46.203Z,6.70
2018-05-06T02:30:13.836Z,6.60
2018-05-06T02:32:40.701Z,6.60
2018-05-06T02:35:07.597Z,6.50
2018-05-06T02:37:34.887Z,6.70
2018-05-06T02:40:03.014Z,6.70
2018-05-06T02:42:29.907Z,6.70
2018-05-06T02:44:56.403Z,6.80
2018-05-06T02:47:22.949Z,7.10
2018-05-06T02:49:49.424Z,6.70
2018-05-06T02:52:17.867Z,6.90
2018-05-06T02:54:44.400Z,6.90
2018-05-06T02:57:11.543Z,7.00
2018-05-06T02:59:38.001Z,7.10
2018-05-06T03:02:05.267Z,7.10
2018-05-06T03:04:32.466Z,7.10
2018-05-06T03:06:58.984Z,7.10
2018-05-06T03:09:25.986Z,7.10
2018-05-06T03:11:53.694Z,7.00
2018-05-06T03:14:20.154Z,7.00
2018-05-06T03:16:46.667Z,6.90
2018-05-06T03:19:13.087Z,6.60
2018-05-06T03:21:39.905Z,6.80
2018-05-06T03:24:07.061Z,6.90
2018-05-06T03:26:33.409Z,7.00
2018-05-06T03:28:59.914Z,6.90
2018-05-06T03:31:27.128Z,6.90
2018-05-06T03:33:53.599Z,6.80
2018-05-06T03:36:20.064Z,6.70
2018-05-06T03:38:46.534Z,6.70
2018-05-06T03:41:13.050Z,6.80
2018-05-06T03:43:40.305Z,6.80
2018-05-06T03:46:08.264Z,6.80
2018-05-06T03:48:35.108Z,6.80
2018-05-06T03:51:02.324Z,6.90
2018-05-06T03:53:28.746Z,7.00
2018-05-06T03:59:11.013Z,6.90
2018-05-06T04:01:37.899Z,7.50
2018-05-06T04:04:04.356Z,7.00
2018-05-06T04:06:30.800Z,7.10
2018-05-06T04:08:57.274Z,7.10
2018-05-06T04:11:23.770Z,7.10
2018-05-06T04:13:51.067Z,7.20
2018-05-06T04:16:17.560Z,7.80
2018-05-06T04:18:44.753Z,7.40
2018-05-06T04:21:12.045Z,7.40
2018-05-06T04:23:38.412Z,7.50
2018-05-06T04:26:05.273Z,7.50
2018-05-06T04:28:33.164Z,7.50
2018-05-06T04:30:59.723Z,7.60
2018-05-06T04:35:54.457Z,7.70
2018-05-06T04:38:20.805Z,8.10
2018-05-06T04:40:47.602Z,7.80
2018-05-06T04:43:14.058Z,7.80
2018-05-06T04:45:40.491Z,7.90
2018-05-06T04:50:35.633Z,8.10
2018-05-06T04:53:02.079Z,8.30
2018-05-06T04:55:28.587Z,8.20
2018-05-06T04:57:55.414Z,8.50
2018-05-06T05:00:21.825Z,8.60
2018-05-06T05:02:49.361Z,8.70
2018-05-06T05:05:16.541Z,8.80
2018-05-06T05:07:43.729Z,8.80
2018-05-06T05:10:10.136Z,8.90
2018-05-06T05:12:36.627Z,9.10
2018-05-06T05:15:05.157Z,9.20
2018-05-06T05:17:31.591Z,9.50
2018-05-06T05:19:58.805Z,9.50
2018-05-06T05:22:26.317Z,9.60
2018-05-06T05:24:53.090Z,9.60
2018-05-06T05:27:19.912Z,9.80
2018-05-06T05:29:47.103Z,10.00
2018-05-06T05:32:13.635Z,10.10
2018-05-06T05:34:40.166Z,10.10
2018-05-06T05:37:07.046Z,10.10
2018-05-06T05:39:33.650Z,10.20
2018-05-06T05:42:01.638Z,10.30
2018-05-06T05:44:28.105Z,10.40
2018-05-06T05:46:54.924Z,10.50
2018-05-06T05:49:21.578Z,10.50
2018-05-06T05:51:48.720Z,10.70
2018-05-06T05:54:15.960Z,10.80
2018-05-06T05:56:42.732Z,10.80
2018-05-06T05:59:09.289Z,11.10
2018-05-06T06:01:37.378Z,11.00
2018-05-06T06:04:03.859Z,11.10
2018-05-06T06:06:31.453Z,11.20
2018-05-06T06:08:58.331Z,11.30
2018-05-06T06:11:24.779Z,11.90
2018-05-06T06:13:51.137Z,11.70
2018-05-06T06:16:17.571Z,11.90
2018-05-06T06:18:44.109Z,12.00
2018-05-06T06:21:10.630Z,12.00
2018-05-06T06:23:37.042Z,12.20
2018-05-06T06:26:03.698Z,12.30
2018-05-06T06:28:30.508Z,12.40
2018-05-06T06:30:57.010Z,12.60
2018-05-06T06:33:23.961Z,12.60
2018-05-06T06:35:51.274Z,12.80
2018-05-06T06:38:18.249Z,12.90
2018-05-06T06:40:45.627Z,13.10
2018-05-06T06:43:13.541Z,13.30
2018-05-06T06:45:39.991Z,13.40
2018-05-06T06:48:06.472Z,13.50
2018-05-06T06:50:33.057Z,13.40
2018-05-06T06:53:05.746Z,13.60
2018-05-06T06:55:33.120Z,13.80
2018-05-06T06:58:00.762Z,13.80
2018-05-06T07:00:28.083Z,14.00
2018-05-06T07:02:54.678Z,14.00
2018-05-06T07:05:21.777Z,14.00
2018-05-06T07:12:47.554Z,14.70
2018-05-06T07:15:14.064Z,15.00
2018-05-06T07:17:42.204Z,14.90
2018-05-06T07:20:08.609Z,15.10
2018-05-06T07:22:35.175Z,15.10
2018-05-06T07:25:01.713Z,15.20
2018-05-06T07:27:29.654Z,15.30
2018-05-06T07:29:57.748Z,15.40
2018-05-06T07:32:46.102Z,15.50
2018-05-06T07:35:13.404Z,15.60
2018-05-06T07:37:39.869Z,15.60
2018-05-06T07:45:59.535Z,16.00
2018-05-06T07:51:14.975Z,16.10
2018-05-06T07:53:42.141Z,16.20
2018-05-06T07:56:09.359Z,16.30
2018-05-06T07:58:37.669Z,16.60
2018-05-06T08:01:04.772Z,17.10
2018-05-06T08:03:37.554Z,18.70
2018-05-06T08:06:03.994Z,20.30
2018-05-06T08:08:30.450Z,22.00
2018-05-06T08:10:57.695Z,23.00
2018-05-06T08:13:25.537Z,23.90
2018-05-06T08:15:52.056Z,24.70
2018-05-06T08:18:18.743Z,25.10
2018-05-06T08:20:45.747Z,25.00
2018-05-06T08:23:12.968Z,25.20
2018-05-06T08:25:40.412Z,24.90
2018-05-06T08:28:07.430Z,25.00
2018-05-06T08:30:33.973Z,25.20
2018-05-06T08:33:01.259Z,25.60
2018-05-06T08:35:28.864Z,25.20
2018-05-06T08:37:55.733Z,25.40
2018-05-06T08:40:22.644Z,26.00
2018-05-06T08:42:49.688Z,26.60
2018-05-06T08:45:16.254Z,26.40
2018-05-06T08:47:44.195Z,26.80
2018-05-06T08:50:11.042Z,27.20
2018-05-06T08:52:38.305Z,27.50
2018-05-06T08:55:05.490Z,27.70
2018-05-06T08:57:31.910Z,27.20
2018-05-06T08:59:58.697Z,27.20
2018-05-06T09:02:25.164Z,27.40
2018-05-06T09:04:52.478Z,27.60
2018-05-06T09:07:19.026Z,27.60
2018-05-06T09:09:45.572Z,28.00
2018-05-06T09:12:12.495Z,28.70
2018-05-06T09:14:38.977Z,28.10
2018-05-06T09:17:07.600Z,28.20
2018-05-06T09:19:35.443Z,28.20
2018-05-06T09:22:02.012Z,28.40
2018-05-06T09:24:28.527Z,29.00
2018-05-06T09:29:23.895Z,28.50
2018-05-06T09:31:52.056Z,29.00
2018-05-06T09:34:18.523Z,29.30
2018-05-06T09:36:45.129Z,29.20
2018-05-06T09:39:16.617Z,28.80
2018-05-06T09:41:43.773Z,29.10
2018-05-06T09:44:10.363Z,29.70
2018-05-06T09:46:37.251Z,29.90
2018-05-06T09:49:04.132Z,29.60
2018-05-06T09:51:30.659Z,30.00
2018-05-06T09:54:06.546Z,29.90
2018-05-06T09:56:38.310Z,30.10
2018-05-06T09:59:05.990Z,30.50
2018-05-06T10:01:32.604Z,30.20
2018-05-06T10:03:59.775Z,30.30
2018-05-06T10:06:26.279Z,29.50
2018-05-06T10:08:52.809Z,29.70
2018-05-06T10:11:19.182Z,29.10
2018-05-06T10:13:46.502Z,29.70
2018-05-06T10:16:13.658Z,30.20
2018-05-06T10:18:40.815Z,30.60
2018-05-06T10:21:08.774Z,30.60
2018-05-06T10:23:35.981Z,30.20
2018-05-06T10:26:02.590Z,30.40
2018-05-06T10:28:29.368Z,30.60
2018-05-06T10:30:56.557Z,30.50
2018-05-06T10:33:23.037Z,30.00
2018-05-06T10:35:49.584Z,30.50
2018-05-06T10:38:16.026Z,30.50
2018-05-06T10:40:43.270Z,30.30
2018-05-06T10:43:09.738Z,29.20
2018-05-06T10:48:04.507Z,30.20
2018-05-06T10:50:31.470Z,31.20
2018-05-06T10:52:58.543Z,31.60
2018-05-06T10:55:25.694Z,31.70
2018-05-06T11:02:48.268Z,31.50
2018-05-06T11:05:14.824Z,32.30
2018-05-06T11:07:42.777Z,32.70
2018-05-06T11:10:09.622Z,32.20
2018-05-06T11:12:36.091Z,32.10
2018-05-06T11:15:03.296Z,32.00
2018-05-06T11:17:30.542Z,31.80
2018-05-06T11:22:26.033Z,31.80
2018-05-06T11:24:52.881Z,32.00
2018-05-06T11:29:47.987Z,31.80
2018-05-06T11:32:14.603Z,32.60
2018-05-06T11:34:41.399Z,32.50
2018-05-06T11:39:40.170Z,31.40
2018-05-06T11:42:07.220Z,31.20
2018-05-06T11:44:33.975Z,30.80
2018-05-06T11:47:00.548Z,31.00
2018-05-06T11:49:27.152Z,30.90
2018-05-06T11:51:54.730Z,30.60
2018-05-06T11:54:21.448Z,31.00
2018-05-06T11:56:48.520Z,31.00
2018-05-06T11:59:15.988Z,31.50
2018-05-06T12:01:42.637Z,31.60
2018-05-06T12:04:09.262Z,31.90
2018-05-06T12:06:36.179Z,32.00
2018-05-06T12:09:02.766Z,32.30
2018-05-06T12:11:30.083Z,32.40
2018-05-06T12:13:57.648Z,31.90
2018-05-06T12:16:24.119Z,32.00
2018-05-06T12:18:50.756Z,31.80
2018-05-06T12:21:18.005Z,32.10
2018-05-06T12:23:44.890Z,32.40
2018-05-06T12:26:12.221Z,32.40
2018-05-06T12:28:38.772Z,33.30
2018-05-06T12:31:06.832Z,33.70
2018-05-06T12:33:33.336Z,33.80
2018-05-06T12:36:00.016Z,33.20
2018-05-06T12:38:27.585Z,33.40
2018-05-06T12:45:50.559Z,33.20
2018-05-06T12:48:18.334Z,33.30
2018-05-06T12:50:44.748Z,33.60
2018-05-06T12:53:11.149Z,32.70
2018-05-06T12:55:37.650Z,32.40
2018-05-06T13:00:34.208Z,32.50
2018-05-06T13:03:01.774Z,33.20
2018-05-06T13:05:28.160Z,33.90
2018-05-06T13:07:58.571Z,33.90
2018-05-06T13:10:27.187Z,33.80
2018-05-06T13:12:53.856Z,33.80
2018-05-06T13:15:21.071Z,33.10
2018-05-06T13:17:47.857Z,33.40
2018-05-06T13:20:15.682Z,33.60
2018-05-06T13:22:43.988Z,33.90
2018-05-06T13:25:11.416Z,34.00
2018-05-06T13:27:38.379Z,34.40
2018-05-06T13:35:01.730Z,34.00
2018-05-06T13:37:29.122Z,34.10
2018-05-06T13:39:55.656Z,33.90
2018-05-06T13:42:22.729Z,33.90
2018-05-06T13:44:49.916Z,34.50
2018-05-06T13:47:16.457Z,34.00
2018-05-06T13:49:42.907Z,33.90
2018-05-06T13:52:10.473Z,34.00
2018-05-06T13:54:36.946Z,34.40
2018-05-06T13:57:03.954Z,34.10
2018-05-06T13:59:31.348Z,34.60
2018-05-06T14:01:59.212Z,34.10
2018-05-06T14:04:26.443Z,34.60
2018-05-06T14:09:23.315Z,34.90
2018-05-06T14:11:50.235Z,34.90
2018-05-06T14:14:18.217Z,34.90
2018-05-06T14:16:44.800Z,34.80
2018-05-06T14:19:11.228Z,35.30
2018-05-06T14:21:38.524Z,35.60
2018-05-06T14:24:05.883Z,35.40
2018-05-06T14:26:33.453Z,35.30
2018-05-06T14:29:00.840Z,35.10
2018-05-06T14:31:28.985Z,35.40
2018-05-06T14:33:56.230Z,35.10
2018-05-06T14:36:23.495Z,35.30
2018-05-06T14:38:50.650Z,35.00
2018-05-06T14:41:17.697Z,34.10
2018-05-06T14:43:53.183Z,33.20
2018-05-06T14:46:34.190Z,32.30
2018-05-06T14:49:00.752Z,32.20
2018-05-06T14:51:28.355Z,31.90
2018-05-06T14:53:55.657Z,30.00
2018-05-06T14:56:23.093Z,29.40
2018-05-06T14:58:49.930Z,30.40
2018-05-06T15:01:16.418Z,32.20
2018-05-06T15:03:43.358Z,33.10
2018-05-06T15:06:09.873Z,34.10
2018-05-06T15:08:37.206Z,34.40
2018-05-06T15:11:03.819Z,34.40
2018-05-06T15:13:30.918Z,33.60
2018-05-06T15:15:57.336Z,34.30
2018-05-06T15:18:24.200Z,33.90
2018-05-06T15:20:51.732Z,34.20
2018-05-06T15:23:18.205Z,34.50
2018-05-06T15:25:45.491Z,34.70
2018-05-06T15:28:12.895Z,34.90
2018-05-06T15:30:39.749Z,34.70
2018-05-06T15:33:06.273Z,35.20
2018-05-06T15:35:34.165Z,35.40
2018-05-06T15:38:01.286Z,35.70
2018-05-06T15:45:25.659Z,34.80
2018-05-06T15:50:21.344Z,34.00
2018-05-06T15:52:48.445Z,34.70
2018-05-06T15:57:43.511Z,35.10
2018-05-06T16:00:11.134Z,35.30
2018-05-06T16:05:55.897Z,36.10
2018-05-06T16:08:22.340Z,36.10
2018-05-06T16:10:49.530Z,35.80
2018-05-06T16:13:16.668Z,35.30
2018-05-06T16:15:47.875Z,35.00
2018-05-06T16:18:15.503Z,35.00
2018-05-06T16:20:41.889Z,34.60
2018-05-06T16:23:08.782Z,34.30
2018-05-06T16:25:35.300Z,34.00
2018-05-06T16:28:01.739Z,33.90
2018-05-06T16:30:29.322Z,34.60
2018-05-06T16:32:55.886Z,34.30
2018-05-06T16:35:22.666Z,34.20
2018-05-06T16:37:50.672Z,34.10
2018-05-06T16:40:17.176Z,33.70
2018-05-06T16:42:43.707Z,34.10
2018-05-06T16:47:39.187Z,33.10
2018-05-06T16:50:05.750Z,32.70
2018-05-06T16:52:32.277Z,31.90
2018-05-06T16:54:59.198Z,31.70
2018-05-06T16:57:28.177Z,31.50
2018-05-06T16:59:55.056Z,31.60
2018-05-06T17:02:21.625Z,31.50
2018-05-06T17:04:49.679Z,31.50
2018-05-06T17:07:17.636Z,31.30
2018-05-06T17:09:45.125Z,31.00
2018-05-06T17:12:11.602Z,31.10
2018-05-06T17:14:38.469Z,31.50
2018-05-06T17:17:05.730Z,31.20
2018-05-06T17:19:32.910Z,31.00
2018-05-06T17:22:00.854Z,30.40
2018-05-06T17:24:27.255Z,30.10
2018-05-06T17:26:54.030Z,30.10
2018-05-06T17:29:20.872Z,30.00
2018-05-06T17:31:48.241Z,29.90
2018-05-06T17:34:15.513Z,29.80
2018-05-06T17:36:42.027Z,30.00
2018-05-06T17:39:08.854Z,29.80
2018-05-06T17:41:35.303Z,29.60
2018-05-06T17:44:01.785Z,29.50
2018-05-06T17:46:28.823Z,29.30
2018-05-06T17:48:55.223Z,28.90
2018-05-06T17:51:22.478Z,28.50
2018-05-06T17:53:48.956Z,28.10
2018-05-06T17:56:15.472Z,27.80
2018-05-06T17:58:42.060Z,26.60
2018-05-06T18:01:09.495Z,27.10
2018-05-06T18:06:04.136Z,26.40
2018-05-06T18:08:30.595Z,26.10
2018-05-06T18:10:58.109Z,25.60
2018-05-06T18:13:24.627Z,25.50
2018-05-06T18:15:51.084Z,25.20
2018-05-06T18:18:17.499Z,25.00
2018-05-06T18:20:44.536Z,25.00
2018-05-06T18:23:11.658Z,24.70
2018-05-06T18:25:38.093Z,24.30
2018-05-06T18:28:06.001Z,23.70
2018-05-06T18:30:33.373Z,23.50
2018-05-06T18:33:00.757Z,23.00
2018-05-06T18:37:58.342Z,21.70
2018-05-06T18:40:25.430Z,21.20
2018-05-06T18:42:52.022Z,20.70
2018-05-06T18:45:18.632Z,20.20
2018-05-06T18:47:45.116Z,19.70
2018-05-06T18:50:12.385Z,19.40
2018-05-06T18:52:38.914Z,19.00
2018-05-06T18:55:05.898Z,18.70
2018-05-06T18:57:33.285Z,18.50
2018-05-06T18:59:59.864Z,18.10
2018-05-06T19:02:26.353Z,17.90
2018-05-06T19:04:52.941Z,17.70
2018-05-06T19:07:19.539Z,17.80
2018-05-06T19:09:46.114Z,17.40
2018-05-06T19:12:12.922Z,17.20
2018-05-06T19:14:39.389Z,17.20
2018-05-06T19:17:05.822Z,17.00
2018-05-06T19:19:32.769Z,17.00
2018-05-06T19:21:59.312Z,16.70
2018-05-06T19:26:54.180Z,16.40
2018-05-06T19:29:21.229Z,16.90
2018-05-06T19:31:48.414Z,16.40
2018-05-06T19:34:15.896Z,16.20
2018-05-06T19:36:42.338Z,16.10
2018-05-06T19:39:08.917Z,16.00
2018-05-06T19:41:35.527Z,15.90
2018-05-06T19:44:03.007Z,15.80
2018-05-06T19:46:29.456Z,15.70
2018-05-06T19:48:56.235Z,15.70
2018-05-06T19:51:22.670Z,15.60
2018-05-06T19:53:50.681Z,15.50
2018-05-06T19:56:17.325Z,15.50
2018-05-06T19:58:44.209Z,15.40
2018-05-06T20:01:10.721Z,15.20
2018-05-06T20:03:38.395Z,15.10
2018-05-06T20:06:05.031Z,15.00
2018-05-06T20:10:59.704Z,14.70
2018-05-06T20:13:26.876Z,14.70
2018-05-06T20:15:53.611Z,14.60
2018-05-06T20:18:20.914Z,14.50
2018-05-06T20:20:47.321Z,14.40
2018-05-06T20:23:13.860Z,14.20
2018-05-06T20:25:40.767Z,13.80
2018-05-06T20:28:07.567Z,14.10
2018-05-06T20:33:03.065Z,14.50
2018-05-06T20:35:29.684Z,14.00
2018-05-06T20:37:56.039Z,14.40
2018-05-06T20:40:22.556Z,13.90
2018-05-06T20:42:49.408Z,13.80
2018-05-06T20:45:16.521Z,13.20
2018-05-06T20:47:44.779Z,13.70
2018-05-06T20:50:11.370Z,13.60
2018-05-06T20:52:37.920Z,13.70
2018-05-06T20:55:04.444Z,13.70
2018-05-06T20:57:32.625Z,13.50
2018-05-06T20:59:59.442Z,13.50
2018-05-06T21:02:25.920Z,13.50
2018-05-06T21:04:52.352Z,13.30
2018-05-06T21:07:19.066Z,13.30
2018-05-06T21:09:45.638Z,13.30
2018-05-06T21:12:12.112Z,13.60
2018-05-06T21:14:38.470Z,13.20
2018-05-06T21:17:05.090Z,13.10
2018-05-06T21:19:31.550Z,13.00
2018-05-06T21:21:58.313Z,12.90
2018-05-06T21:24:26.432Z,12.90
2018-05-06T21:26:54.406Z,12.90
2018-05-06T21:29:22.092Z,12.80
2018-05-06T21:31:49.557Z,12.90
2018-05-06T21:34:16.435Z,13.00
2018-05-06T21:36:44.191Z,12.60
2018-05-06T21:39:11.029Z,12.50
2018-05-06T21:41:37.362Z,12.30
2018-05-06T21:44:03.771Z,12.30
2018-05-06T21:46:30.368Z,12.20
2018-05-06T21:48:56.861Z,12.10
2018-05-06T21:51:23.459Z,12.10
2018-05-06T21:53:50.101Z,12.10
2018-05-06T21:56:16.869Z,12.20
2018-05-06T21:58:43.286Z,12.10
2018-05-06T22:01:09.803Z,11.90
2018-05-06T22:03:36.661Z,11.90
2018-05-06T22:06:03.260Z,11.90
2018-05-06T22:08:30.103Z,12.40
2018-05-06T22:10:57.235Z,11.70
2018-05-06T22:13:24.479Z,11.60
2018-05-06T22:15:50.892Z,11.90
2018-05-06T22:18:17.324Z,11.30
2018-05-06T22:20:44.096Z,11.80
2018-05-06T22:23:10.737Z,11.70
2018-05-06T22:25:37.193Z,11.20
2018-05-06T22:28:03.710Z,11.20
2018-05-06T22:30:31.018Z,11.20
2018-05-06T22:32:57.453Z,11.20
2018-05-06T22:35:24.278Z,11.10
2018-05-06T22:37:51.509Z,11.30
2018-05-06T22:40:17.910Z,11.00
2018-05-06T22:42:44.323Z,11.00
2018-05-06T22:45:11.367Z,11.00
2018-05-06T22:47:37.835Z,10.90
2018-05-06T22:50:04.354Z,11.00
2018-05-06T22:52:31.644Z,11.00
2018-05-06T22:54:58.188Z,10.90
2018-05-06T22:57:25.056Z,11.10
2018-05-06T22:59:52.083Z,11.00
2018-05-06T23:02:18.549Z,11.10
2018-05-06T23:04:44.988Z,11.60
2018-05-06T23:07:11.566Z,11.10
2018-05-06T23:09:38.036Z,11.10
2018-05-06T23:12:04.456Z,10.90
2018-05-06T23:14:31.784Z,10.90
2018-05-06T23:16:58.202Z,10.80
2018-05-06T23:19:24.739Z,10.90
2018-05-06T23:21:51.738Z,10.80
2018-05-06T23:24:18.145Z,10.60
2018-05-06T23:26:44.494Z,10.50
2018-05-06T23:29:11.633Z,10.50
2018-05-06T23:31:38.187Z,10.30
2018-05-06T23:34:04.714Z,10.40
2018-05-06T23:36:31.276Z,10.70
2018-05-06T23:38:57.765Z,10.40
2018-05-06T23:41:24.265Z,10.40
2018-05-06T23:43:50.790Z,10.40
2018-05-06T23:46:17.290Z,10.20
2018-05-06T23:48:44.502Z,10.20
2018-05-06T23:51:10.981Z,10.10
2018-05-06T23:53:37.456Z,10.00
2018-05-06T23:56:04.634Z,10.10
2018-05-06T23:58:31.483Z,10.00
